Time;durP1;ratioP1;P1;durP2;ratioP2;P2;SDS_P1;SDS_P2;PMS_P1;PMS_P2;Temp;Humidity;BMP_temperature;BMP_pressure;BME280_temperature;BME280_humidity;BME280_pressure;Samples;Min_cycle;Max_cycle;Signal;HPM_P1;HPM_P2
2023/08/16 00:00:10;;;;;;;10.20;7.97;;;;;;;19.25;100.00;101133.34;4990047;28;20208;-81
2023/08/16 00:02:36;;;;;;;8.63;7.80;;;;;;;19.23;100.00;101136.19;4986716;28;20248;-81
2023/08/16 00:05:04;;;;;;;9.27;8.33;;;;;;;19.23;100.00;101135.31;5004889;28;20218;-81
2023/08/16 00:07:34;;;;;;;11.87;8.60;;;;;;;19.19;100.00;101137.44;5010197;28;20305;-81
2023/08/16 00:10:00;;;;;;;11.27;7.57;;;;;;;19.17;100.00;101131.31;5007626;28;20211;-81
2023/08/16 00:12:27;;;;;;;12.63;8.87;;;;;;;19.16;100.00;101135.06;4994348;28;20621;-81
2023/08/16 00:14:53;;;;;;;9.83;8.03;;;;;;;19.15;100.00;101129.78;5009918;28;20200;-80
2023/08/16 00:17:20;;;;;;;10.57;8.20;;;;;;;19.12;100.00;101132.75;4991765;28;20215;-80
2023/08/16 00:19:46;;;;;;;12.57;8.67;;;;;;;19.08;100.00;101133.03;5005857;28;20213;-81
2023/08/16 00:22:13;;;;;;;9.00;8.10;;;;;;;19.06;100.00;101131.47;5003943;28;20242;-81
2023/08/16 00:24:41;;;;;;;9.40;8.50;;;;;;;19.04;100.00;101138.84;4990970;28;20231;-80
2023/08/16 00:27:07;;;;;;;12.60;8.70;;;;;;;19.02;100.00;101141.69;5074842;28;20205;-81
2023/08/16 00:29:33;;;;;;;9.93;8.23;;;;;;;18.98;100.00;101137.59;4997021;28;20210;-81
2023/08/16 00:32:02;;;;;;;8.77;7.87;;;;;;;18.96;100.00;101138.72;4993301;28;20213;-81
2023/08/16 00:34:29;;;;;;;9.80;8.13;;;;;;;18.98;100.00;101140.28;4969976;28;20212;-82
2023/08/16 00:36:55;;;;;;;11.03;8.30;;;;;;;18.94;100.00;101135.28;4996155;28;20262;-80
2023/08/16 00:39:22;;;;;;;8.77;7.47;;;;;;;18.92;100.00;101131.88;4989138;28;20214;-81
2023/08/16 00:41:49;;;;;;;9.73;8.13;;;;;;;18.89;100.00;101129.44;4995532;28;20206;-81
2023/08/16 00:44:16;;;;;;;10.23;8.33;;;;;;;18.84;100.00;101129.84;4999092;28;20314;-81
2023/08/16 00:46:42;;;;;;;9.57;8.53;;;;;;;18.84;100.00;101126.31;5008364;28;20205;-81
2023/08/16 00:49:09;;;;;;;9.33;8.00;;;;;;;18.82;100.00;101121.03;5008157;28;20704;-81
2023/08/16 00:51:37;;;;;;;10.50;8.70;;;;;;;18.80;100.00;101120.34;4990652;28;20213;-81
2023/08/16 00:54:04;;;;;;;10.00;8.40;;;;;;;18.79;100.00;101123.19;4989399;28;20240;-80
2023/08/16 00:56:30;;;;;;;11.13;8.87;;;;;;;18.78;100.00;101118.78;5003073;28;20217;-81
2023/08/16 00:58:58;;;;;;;9.57;8.50;;;;;;;18.76;100.00;101124.31;4995728;28;20217;-81
2023/08/16 01:01:25;;;;;;;11.33;8.43;;;;;;;18.75;100.00;101122.63;4995975;28;20215;-80
2023/08/16 01:03:52;;;;;;;9.87;8.43;;;;;;;18.73;100.00;101122.75;5009361;28;20236;-80
2023/08/16 01:06:19;;;;;;;9.67;8.40;;;;;;;18.77;100.00;101119.78;4993593;28;20214;-81
2023/08/16 01:08:45;;;;;;;9.97;7.53;;;;;;;18.74;100.00;101112.81;5003214;28;20210;-81
2023/08/16 01:11:19;;;;;;;13.73;8.63;;;;;;;18.73;100.00;101120.03;4990379;28;20772;-81
2023/08/16 01:13:55;;;;;;;12.93;8.67;;;;;;;18.72;100.00;101121.03;4989993;28;20713;-81
2023/08/16 01:16:26;;;;;;;10.73;8.93;;;;;;;18.72;100.00;101122.88;4998443;28;20212;-81
2023/08/16 01:18:53;;;;;;;12.60;8.63;;;;;;;18.70;100.00;101125.72;4994004;28;20213;-81
2023/08/16 01:21:21;;;;;;;11.40;9.00;;;;;;;18.68;100.00;101129.53;5007945;28;20213;-81
2023/08/16 01:24:00;;;;;;;9.63;8.67;;;;;;;18.67;100.00;101122.44;4992418;28;20698;-81
2023/08/16 01:26:31;;;;;;;10.83;8.70;;;;;;;18.65;100.00;101119.00;4987404;28;20288;-81
2023/08/16 01:28:59;;;;;;;12.50;9.67;;;;;;;18.61;100.00;101134.66;4982339;28;20293;-81
2023/08/16 01:31:26;;;;;;;11.50;9.80;;;;;;;18.59;100.00;101131.22;5010420;28;20212;-81
2023/08/16 01:33:53;;;;;;;15.23;9.63;;;;;;;18.57;100.00;101127.78;5010852;28;20252;-81
2023/08/16 01:36:20;;;;;;;10.90;9.80;;;;;;;18.56;100.00;101131.47;5011091;28;20201;-81
2023/08/16 01:38:46;;;;;;;11.17;10.07;;;;;;;18.54;100.00;101133.44;4996913;28;20583;-80
2023/08/16 01:41:21;;;;;;;13.03;9.80;;;;;;;18.52;100.00;101135.41;4994523;28;20214;-81
2023/08/16 01:43:49;;;;;;;12.73;10.00;;;;;;;18.50;100.00;101137.41;5004834;28;20232;-81
2023/08/16 01:46:17;;;;;;;14.97;10.07;;;;;;;18.48;100.00;101139.38;4998216;28;20281;-80
2023/08/16 01:48:45;;;;;;;11.57;10.43;;;;;;;18.47;100.00;101144.91;5012325;28;20602;-81
2023/08/16 01:51:12;;;;;;;11.97;9.83;;;;;;;18.45;100.00;101144.22;5008386;28;20206;-80
2023/08/16 01:53:38;;;;;;;13.07;10.70;;;;;;;18.42;100.00;101139.94;5000578;28;20219;-81
2023/08/16 01:56:05;;;;;;;11.40;10.07;;;;;;;18.40;100.00;101141.91;4990429;28;20222;-81
2023/08/16 01:58:31;;;;;;;10.87;9.77;;;;;;;18.37;100.00;101140.34;4992730;28;20569;-80
2023/08/16 02:01:00;;;;;;;12.97;10.60;;;;;;;18.35;100.00;101150.41;4990297;28;20202;-81
2023/08/16 02:03:27;;;;;;;11.63;10.40;;;;;;;18.35;100.00;101153.09;4990252;28;20229;-81
2023/08/16 02:05:53;;;;;;;13.63;11.03;;;;;;;18.33;100.00;101155.06;4995266;28;20200;-80
2023/08/16 02:08:19;;;;;;;13.80;10.03;;;;;;;18.31;100.00;101156.19;4998306;28;20218;-81
2023/08/16 02:10:46;;;;;;;13.13;10.43;;;;;;;18.28;100.00;101160.00;4990351;28;20220;-80
2023/08/16 02:13:12;;;;;;;13.53;10.57;;;;;;;18.26;100.00;101150.38;4990660;28;20700;-81
2023/08/16 02:15:39;;;;;;;11.00;9.97;;;;;;;18.24;100.00;101146.94;4992684;28;20737;-80
2023/08/16 02:18:10;;;;;;;11.53;10.07;;;;;;;18.22;100.00;101147.09;4990354;28;20578;-80
2023/08/16 02:20:38;;;;;;;13.47;11.07;;;;;;;18.21;100.00;101147.22;4987548;28;20942;-80
2023/08/16 02:23:05;;;;;;;16.70;11.73;;;;;;;18.18;100.00;101142.94;5005189;28;20232;-81
2023/08/16 02:25:31;;;;;;;11.83;10.63;;;;;;;18.17;100.00;101148.47;4986390;28;20197;-81
2023/08/16 02:28:04;;;;;;;12.60;10.67;;;;;;;18.16;100.00;101154.84;5009041;28;20213;-81
2023/08/16 02:30:31;;;;;;;13.30;10.40;;;;;;;18.14;100.00;101154.13;4982522;28;20222;-80
2023/08/16 02:32:57;;;;;;;11.30;10.17;;;;;;;18.11;100.00;101148.97;4978756;28;20260;-79
2023/08/16 02:35:25;;;;;;;12.93;10.13;;;;;;;18.09;100.00;101153.69;4992258;28;20220;-80
2023/08/16 02:37:52;;;;;;;12.17;10.80;;;;;;;18.07;100.00;101161.91;4998375;28;20205;-79
2023/08/16 02:40:18;;;;;;;10.90;9.43;;;;;;;18.04;100.00;101165.72;4991811;28;20214;-79
2023/08/16 02:42:46;;;;;;;13.90;9.57;;;;;;;18.02;100.00;101173.06;4989941;28;20228;-81
2023/08/16 02:45:13;;;;;;;12.37;10.13;;;;;;;18.02;100.00;101164.13;4992615;28;20229;-79
2023/08/16 02:47:39;;;;;;;12.63;10.30;;;;;;;18.00;100.00;101163.41;4986221;28;20213;-81
2023/08/16 02:50:07;;;;;;;14.83;10.00;;;;;;;17.97;100.00;101164.53;4996934;28;20217;-81
2023/08/16 02:52:35;;;;;;;11.13;9.93;;;;;;;17.97;100.00;101167.22;4990340;28;20584;-81
2023/08/16 02:55:01;;;;;;;13.43;10.00;;;;;;;17.96;100.00;101160.13;4997847;28;20223;-81
2023/08/16 02:57:28;;;;;;;11.40;9.80;;;;;;;17.95;100.00;101157.53;5006861;28;20209;-81
2023/08/16 02:59:54;;;;;;;11.57;10.40;;;;;;;17.95;100.00;101169.19;4990248;28;20658;-81
2023/08/16 03:02:21;;;;;;;11.23;9.53;;;;;;;17.96;100.00;101165.50;5008369;28;20729;-81
2023/08/16 03:04:48;;;;;;;13.70;9.83;;;;;;;17.94;100.00;101156.69;4995792;28;20283;-80
2023/08/16 03:07:14;;;;;;;14.20;9.70;;;;;;;17.90;100.00;101160.66;4990258;28;20210;-81
2023/08/16 03:09:42;;;;;;;12.00;9.43;;;;;;;17.89;100.00;101161.66;4989769;28;20219;-81
2023/08/16 03:12:09;;;;;;;10.73;9.63;;;;;;;17.88;100.00;101162.63;4990886;28;20602;-81
2023/08/16 03:14:35;;;;;;;10.87;9.57;;;;;;;17.87;100.00;101177.09;4993919;28;20209;-81
2023/08/16 03:17:02;;;;;;;12.77;8.57;;;;;;;17.85;100.00;101176.34;4992044;28;20213;-80
2023/08/16 03:19:28;;;;;;;11.93;9.80;;;;;;;17.84;100.00;101171.97;5000092;28;20206;-81
2023/08/16 03:21:56;;;;;;;10.57;9.47;;;;;;;17.84;100.00;101171.09;5004569;28;20215;-80
2023/08/16 03:24:22;;;;;;;11.77;9.57;;;;;;;17.85;100.00;101172.81;5006944;28;20226;-81
2023/08/16 03:26:50;;;;;;;12.93;10.20;;;;;;;17.87;100.00;101178.94;4990321;28;20278;-81
2023/08/16 03:29:17;;;;;;;12.17;10.30;;;;;;;17.86;100.00;101179.91;5007379;28;20210;-81
2023/08/16 03:31:43;;;;;;;13.30;10.70;;;;;;;17.84;100.00;101177.34;4997339;28;20201;-81
2023/08/16 03:34:10;;;;;;;11.90;10.60;;;;;;;17.84;100.00;101180.03;4990238;28;20224;-81
2023/08/16 03:36:36;;;;;;;11.83;9.83;;;;;;;17.83;100.00;101191.81;5001997;28;20733;-81
2023/08/16 03:39:05;;;;;;;12.77;9.67;;;;;;;17.83;100.00;101189.09;5009558;28;20697;-81
2023/08/16 03:41:32;;;;;;;11.80;10.63;;;;;;;17.83;100.00;101193.63;5009818;28;20205;-81
2023/08/16 03:44:00;;;;;;;11.90;10.67;;;;;;;17.82;100.00;101195.47;5002788;28;20244;-80
2023/08/16 03:46:26;;;;;;;11.67;10.50;;;;;;;17.81;100.00;101188.38;5009663;28;20215;-80
2023/08/16 03:48:53;;;;;;;15.63;10.93;;;;;;;17.80;100.00;101194.75;4997790;28;20213;-81
2023/08/16 03:51:19;;;;;;;13.83;11.33;;;;;;;17.81;100.00;101196.47;4990387;28;20219;-80
2023/08/16 03:53:46;;;;;;;13.43;11.80;;;;;;;17.79;100.00;101201.13;4990258;28;20244;-80
2023/08/16 03:56:12;;;;;;;15.57;11.67;;;;;;;17.78;100.00;101204.81;4990492;28;20214;-81
2023/08/16 03:58:39;;;;;;;13.90;11.50;;;;;;;17.75;100.00;101196.97;4989874;28;20217;-80
2023/08/16 04:01:07;;;;;;;15.77;11.80;;;;;;;17.76;100.00;101195.13;4990206;28;20208;-80
2023/08/16 04:03:33;;;;;;;14.00;11.23;;;;;;;17.73;100.00;101201.66;4989875;28;20230;-80
2023/08/16 04:05:59;;;;;;;12.73;11.40;;;;;;;17.72;100.00;101209.88;4990389;28;20212;-81
2023/08/16 04:08:26;;;;;;;16.20;12.73;;;;;;;17.71;100.00;101218.94;4989953;28;20221;-80
2023/08/16 04:10:52;;;;;;;15.23;11.97;;;;;;;17.67;100.00;101211.09;4989850;28;20683;-80
2023/08/16 04:13:19;;;;;;;15.43;12.90;;;;;;;17.68;100.00;101220.03;4989723;28;20727;-80
2023/08/16 04:15:46;;;;;;;15.70;13.17;;;;;;;17.67;100.00;101221.03;4989431;28;20692;-81
2023/08/16 04:18:14;;;;;;;14.83;13.13;;;;;;;17.66;100.00;101219.31;4999047;28;20201;-81
2023/08/16 04:20:41;;;;;;;17.20;13.40;;;;;;;17.65;100.00;101220.28;5006148;28;20680;-80
2023/08/16 04:23:07;;;;;;;13.80;12.33;;;;;;;17.66;100.00;101232.78;5006051;28;20240;-80
2023/08/16 04:25:34;;;;;;;13.57;12.17;;;;;;;17.67;100.00;101235.34;4994117;28;20229;-80
2023/08/16 04:28:01;;;;;;;16.33;12.60;;;;;;;17.67;100.00;101234.50;5008484;28;20205;-81
2023/08/16 04:30:27;;;;;;;15.30;12.37;;;;;;;17.66;100.00;101232.78;4991244;28;20226;-80
2023/08/16 04:32:53;;;;;;;13.53;12.17;;;;;;;17.65;100.00;101242.69;4989304;28;20238;-80
2023/08/16 04:35:21;;;;;;;17.73;12.10;;;;;;;17.66;100.00;101232.78;4998932;28;20209;-80
2023/08/16 04:37:48;;;;;;;13.67;12.27;;;;;;;17.65;100.00;101242.69;5009195;28;20301;-80
2023/08/16 04:40:14;;;;;;;15.13;11.30;;;;;;;17.66;100.00;101243.56;5009144;28;20676;-80
2023/08/16 04:42:41;;;;;;;14.20;12.10;;;;;;;17.67;100.00;101253.34;4988642;28;20598;-80
2023/08/16 04:45:08;;;;;;;13.33;11.77;;;;;;;17.70;100.00;101250.41;4989392;28;20623;-80
2023/08/16 04:47:35;;;;;;;12.63;11.37;;;;;;;17.71;100.00;101252.13;4996429;28;20291;-80
2023/08/16 04:50:03;;;;;;;17.80;11.97;;;;;;;17.72;100.00;101248.44;4988633;28;20220;-81
2023/08/16 04:52:31;;;;;;;13.37;10.93;;;;;;;17.73;100.00;101254.69;4988496;28;20774;-80
2023/08/16 04:54:58;;;;;;;12.73;10.90;;;;;;;17.74;100.00;101249.13;4988745;28;20208;-80
2023/08/16 04:57:25;;;;;;;13.43;10.53;;;;;;;17.75;100.00;101248.16;5071122;28;20295;-80
2023/08/16 04:59:51;;;;;;;11.73;10.53;;;;;;;17.77;100.00;101239.94;5091110;28;20209;-80
2023/08/16 05:02:18;;;;;;;12.27;10.97;;;;;;;17.78;100.00;101252.44;5090967;28;20225;-80
2023/08/16 05:04:44;;;;;;;13.53;9.40;;;;;;;17.78;100.00;101242.53;5091650;28;20227;-81
2023/08/16 05:07:11;;;;;;;10.73;9.63;;;;;;;17.80;100.00;101247.78;5090834;28;20206;-80
2023/08/16 05:09:39;;;;;;;11.53;8.90;;;;;;;17.82;100.00;101254.75;5090879;28;20236;-80
2023/08/16 05:12:06;;;;;;;9.73;8.80;;;;;;;17.83;100.00;101256.47;5015164;28;20576;-80
2023/08/16 05:14:32;;;;;;;9.90;8.83;;;;;;;17.86;100.00;101260.75;4988966;28;20207;-80
2023/08/16 05:16:59;;;;;;;9.63;8.67;;;;;;;17.87;100.00;101271.41;4988884;28;20581;-80
2023/08/16 05:19:25;;;;;;;10.40;8.70;;;;;;;17.91;100.00;101272.00;4988730;28;20249;-80
2023/08/16 05:21:52;;;;;;;12.70;9.47;;;;;;;17.93;100.00;101273.56;4988619;28;20235;-80
2023/08/16 05:24:18;;;;;;;8.87;7.97;;;;;;;17.94;100.00;101277.97;4988949;28;20248;-79
2023/08/16 05:26:46;;;;;;;9.33;8.40;;;;;;;17.97;100.00;101290.34;4992753;28;20206;-80
2023/08/16 05:29:12;;;;;;;12.27;9.03;;;;;;;17.99;100.00;101291.06;4994116;28;20233;-80
2023/08/16 05:31:41;;;;;;;9.80;7.93;;;;;;;18.00;100.00;101285.53;4989972;28;20206;-80
2023/08/16 05:34:08;;;;;;;8.93;8.07;;;;;;;18.04;100.00;101292.41;4988350;28;20295;-80
2023/08/16 05:36:34;;;;;;;10.87;8.23;;;;;;;18.06;100.00;101286.88;4989176;28;20210;-79
2023/08/16 05:39:03;;;;;;;9.10;7.67;;;;;;;18.08;100.00;101286.75;4988712;28;20593;-80
2023/08/16 05:41:29;;;;;;;7.97;7.17;;;;;;;18.11;100.00;101297.25;4988613;28;20617;-80
2023/08/16 05:43:57;;;;;;;9.10;8.20;;;;;;;18.13;100.00;101295.28;4991566;28;20218;-79
2023/08/16 05:46:24;;;;;;;9.13;7.47;;;;;;;18.12;100.00;101302.50;4991932;28;20228;-79
2023/08/16 05:48:50;;;;;;;10.00;7.83;;;;;;;18.13;100.00;101301.53;4995927;28;20205;-81
2023/08/16 05:51:16;;;;;;;8.43;7.47;;;;;;;18.15;100.00;101306.78;5011405;28;20229;-80
2023/08/16 05:53:43;;;;;;;8.87;7.73;;;;;;;18.16;100.00;101303.13;4972406;28;20238;-80
2023/08/16 05:56:09;;;;;;;10.93;7.67;;;;;;;18.19;100.00;101308.25;4986832;28;20209;-80
2023/08/16 05:58:36;;;;;;;9.63;7.73;;;;;;;18.23;100.00;101307.88;5011458;28;20217;-79
2023/08/16 06:01:04;;;;;;;10.00;7.27;;;;;;;18.25;100.00;101314.00;4999159;28;20226;-79
2023/08/16 06:03:31;;;;;;;10.67;7.60;;;;;;;18.26;100.00;101306.75;5001817;28;20242;-79
2023/08/16 06:05:59;;;;;;;9.30;7.80;;;;;;;18.28;100.00;101307.44;5012819;28;20262;-80
2023/08/16 06:08:25;;;;;;;9.07;6.77;;;;;;;18.29;100.00;101306.47;4999905;28;20214;-79
2023/08/16 06:10:52;;;;;;;9.30;7.07;;;;;;;18.32;100.00;101315.16;4991513;28;20215;-79
2023/08/16 06:13:18;;;;;;;8.90;6.90;;;;;;;18.36;100.00;101307.66;4992017;28;20909;-78
2023/08/16 06:15:45;;;;;;;7.27;6.57;;;;;;;18.41;100.00;101305.44;4992219;28;20196;-79
2023/08/16 06:18:13;;;;;;;8.57;6.30;;;;;;;18.47;100.00;101312.97;4992091;28;20238;-79
2023/08/16 06:20:40;;;;;;;7.17;6.07;;;;;;;18.52;100.00;101309.91;5054131;28;20200;-79
2023/08/16 06:23:06;;;;;;;9.10;5.40;;;;;;;18.53;100.00;101312.47;5094627;28;20735;-79
2023/08/16 06:25:33;;;;;;;10.30;5.67;;;;;;;18.57;100.00;101316.63;5042500;28;20243;-79
2023/08/16 06:27:59;;;;;;;7.10;5.83;;;;;;;18.59;100.00;101317.38;4992024;28;20304;-79
2023/08/16 06:30:26;;;;;;;7.83;5.70;;;;;;;18.61;100.00;101311.84;4991799;28;20220;-80
2023/08/16 06:32:53;;;;;;;11.93;6.33;;;;;;;18.62;100.00;101317.13;4999422;28;20224;-79
2023/08/16 06:35:21;;;;;;;7.90;6.00;;;;;;;18.65;100.00;101316.81;4992357;28;20242;-79
2023/08/16 06:37:47;;;;;;;8.17;6.00;;;;;;;18.68;100.00;101311.16;4986348;28;20611;-79
2023/08/16 06:40:14;;;;;;;7.27;5.87;;;;;;;18.72;100.00;101309.91;4992240;28;20214;-79
2023/08/16 06:42:40;;;;;;;10.53;6.90;;;;;;;18.75;100.00;101307.94;4992246;28;20317;-80
2023/08/16 06:45:08;;;;;;;7.57;6.20;;;;;;;18.80;100.00;101298.47;4992028;28;20233;-80
2023/08/16 06:47:35;;;;;;;9.47;7.20;;;;;;;18.84;100.00;101296.34;4993024;28;20213;-81
2023/08/16 06:50:02;;;;;;;13.83;7.97;;;;;;;18.87;100.00;101299.63;4987352;28;20566;-80
2023/08/16 06:52:29;;;;;;;10.27;7.53;;;;;;;18.92;100.00;101304.63;4991574;28;20233;-81
2023/08/16 06:54:56;;;;;;;11.93;7.23;;;;;;;18.99;100.00;101328.22;4988700;28;20213;-81
2023/08/16 06:57:22;;;;;;;11.10;6.50;;;;;;;19.03;100.00;101323.41;4993727;28;20223;-80
2023/08/16 06:59:49;;;;;;;8.47;6.23;;;;;;;19.04;100.00;101325.97;4996595;28;20649;-81
2023/08/16 07:02:15;;;;;;;8.50;5.50;;;;;;;19.04;100.00;101330.53;4985609;28;20730;-80
2023/08/16 07:04:43;;;;;;;8.77;5.83;;;;;;;19.06;100.00;101332.09;4994395;28;20710;-81
2023/08/16 07:07:10;;;;;;;9.10;5.60;;;;;;;19.11;100.00;101325.44;5022377;28;20205;-80
2023/08/16 07:09:38;;;;;;;6.97;4.97;;;;;;;19.14;100.00;101331.44;4985417;28;20232;-82
2023/08/16 07:12:04;;;;;;;10.87;5.80;;;;;;;19.17;100.00;101341.94;4994149;28;20211;-82
2023/08/16 07:14:31;;;;;;;8.53;5.20;;;;;;;19.21;100.00;101332.59;4995684;28;20630;-82
2023/08/16 07:16:57;;;;;;;6.87;4.70;;;;;;;19.25;100.00;101347.53;4989642;28;20211;-82
2023/08/16 07:19:24;;;;;;;6.53;4.93;;;;;;;19.30;100.00;101348.00;4993776;28;20579;-80
2023/08/16 07:21:50;;;;;;;11.97;4.80;;;;;;;19.34;100.00;101354.84;4986099;28;20208;-81
2023/08/16 07:24:17;;;;;;;11.80;5.80;;;;;;;19.40;100.00;101348.88;4987992;28;20232;-81
2023/08/16 07:26:44;;;;;;;9.23;5.77;;;;;;;19.45;100.00;101355.72;4988642;28;20235;-81
2023/08/16 07:29:11;;;;;;;9.10;5.37;;;;;;;19.50;100.00;101348.94;4986434;28;20214;-82
2023/08/16 07:31:37;;;;;;;5.47;4.72;;;;;;;19.57;100.00;101349.22;4985320;28;20226;-81
2023/08/16 07:34:04;;;;;;;5.90;4.17;;;;;;;19.59;99.64;101342.69;4995641;28;21024;-81
2023/08/16 07:36:30;;;;;;;7.23;4.13;;;;;;;19.62;96.86;101341.56;4983046;28;20561;-82
2023/08/16 07:38:57;;;;;;;6.57;3.97;;;;;;;19.64;96.51;101347.69;4993220;28;20674;-81
2023/08/16 07:41:23;;;;;;;4.87;4.30;;;;;;;19.68;96.79;101338.31;4989067;28;20203;-82
2023/08/16 07:43:52;;;;;;;5.07;3.60;;;;;;;19.76;96.98;101341.16;4988024;28;20234;-81
2023/08/16 07:46:19;;;;;;;5.27;3.23;;;;;;;19.83;93.45;101333.38;4985287;28;20261;-81
2023/08/16 07:48:45;;;;;;;3.83;2.50;;;;;;;19.85;90.98;101343.03;4984013;28;20203;-80
2023/08/16 07:51:11;;;;;;;7.67;2.37;;;;;;;19.88;88.19;101350.03;4989683;28;20203;-80
2023/08/16 07:53:38;;;;;;;6.53;2.23;;;;;;;19.89;85.01;101349.00;4988128;28;20231;-81
2023/08/16 07:56:05;;;;;;;3.50;2.00;;;;;;;19.87;84.36;101349.16;4997349;28;21143;-80
2023/08/16 07:58:31;;;;;;;5.90;2.00;;;;;;;19.87;83.91;101354.56;4985705;28;20199;-81
2023/08/16 08:00:59;;;;;;;4.20;2.80;;;;;;;19.95;85.48;101349.31;4987653;28;20204;-81
2023/08/16 08:03:26;;;;;;;11.25;2.80;;;;;;;20.02;84.90;101365.84;4988187;28;20280;-82
2023/08/16 08:05:53;;;;;;;3.45;2.53;;;;;;;20.13;86.74;101365.69;4985780;28;22090;-81
2023/08/16 08:08:19;;;;;;;5.15;2.83;;;;;;;20.28;87.96;101382.34;4981422;28;20957;-80
2023/08/16 08:10:46;;;;;;;6.57;2.47;;;;;;;20.37;83.89;101381.53;4988344;28;20336;-80
2023/08/16 08:13:12;;;;;;;3.03;2.22;;;;;;;20.43;81.60;101380.94;4983905;28;20224;-80
2023/08/16 08:15:39;;;;;;;3.90;1.67;;;;;;;20.44;78.18;101379.94;4983822;28;20204;-80
2023/08/16 08:18:07;;;;;;;4.25;2.08;;;;;;;20.45;78.02;101370.84;4987643;28;20211;-82
2023/08/16 08:20:34;;;;;;;4.25;1.98;;;;;;;20.53;79.44;101379.09;4986098;28;20214;-81
2023/08/16 08:23:00;;;;;;;3.58;1.70;;;;;;;20.60;76.86;101377.50;4979594;28;20231;-80
2023/08/16 08:25:27;;;;;;;3.85;2.10;;;;;;;20.67;77.59;101375.09;4985717;28;20671;-79
2023/08/16 08:28:12;;;;;;;3.17;1.88;;;;;;;20.80;77.31;101375.63;4989085;28;20294;-81
2023/08/16 08:30:39;;;;;;;3.28;2.10;;;;;;;20.95;76.93;101376.91;4979841;28;20580;-80
2023/08/16 08:33:07;;;;;;;5.00;2.10;;;;;;;21.09;77.34;101378.28;4987157;28;20342;-80
2023/08/16 08:35:38;;;;;;;8.48;2.40;;;;;;;21.22;78.10;101377.97;4986494;28;20208;-82
2023/08/16 08:38:05;;;;;;;3.47;1.90;;;;;;;21.29;75.12;101373.69;4986199;28;20231;-80
2023/08/16 08:40:32;;;;;;;2.30;1.77;;;;;;;21.34;74.63;101374.94;4985633;28;20196;-81
2023/08/16 08:42:59;;;;;;;5.10;1.95;;;;;;;21.41;74.92;101375.19;4998932;28;20739;-81
2023/08/16 08:45:27;;;;;;;4.80;2.03;;;;;;;21.46;74.38;101373.75;5020282;28;20249;-81
2023/08/16 08:47:56;;;;;;;3.60;2.05;;;;;;;21.54;74.38;101378.41;4989480;28;21467;-82
2023/08/16 08:50:25;;;;;;;2.67;1.70;;;;;;;21.59;73.06;101376.09;5010350;28;20199;-81
2023/08/16 08:52:56;;;;;;;2.38;1.70;;;;;;;21.68;73.25;101385.16;4991769;28;20241;-81
2023/08/16 08:55:25;;;;;;;3.30;2.15;;;;;;;21.75;73.01;101381.72;4983026;28;20215;-82
2023/08/16 08:57:54;;;;;;;3.65;2.08;;;;;;;21.78;72.60;101383.28;4977612;28;20199;-82
2023/08/16 09:00:22;;;;;;;4.32;1.80;;;;;;;21.86;72.98;101379.78;4990776;28;20207;-83
2023/08/16 09:02:50;;;;;;;7.70;2.38;;;;;;;21.89;73.06;101377.63;4987718;28;21806;-81
2023/08/16 09:05:21;;;;;;;3.70;2.08;;;;;;;21.95;73.00;101376.16;4986147;28;20207;-83
2023/08/16 09:07:49;;;;;;;5.60;1.85;;;;;;;22.00;71.91;101391.03;4985019;28;20576;-81
2023/08/16 09:10:17;;;;;;;4.75;2.05;;;;;;;22.01;70.76;101381.88;4983619;28;20683;-83
2023/08/16 09:12:44;;;;;;;4.05;1.90;;;;;;;22.03;70.59;101376.31;4978591;28;20724;-82
2023/08/16 09:15:10;;;;;;;2.67;1.40;;;;;;;22.08;70.88;101371.25;4987325;28;20559;-82
2023/08/16 09:17:37;;;;;;;4.75;1.70;;;;;;;22.18;70.65;101369.34;4985177;28;20213;-81
2023/08/16 09:20:05;;;;;;;5.32;2.08;;;;;;;22.22;68.92;101372.56;4982327;28;21960;-82
2023/08/16 09:22:32;;;;;;;3.72;1.98;;;;;;;22.18;67.78;101377.47;4983657;28;20643;-82
2023/08/16 09:25:03;;;;;;;3.53;1.75;;;;;;;22.13;67.87;101368.94;4986148;28;20208;-81
2023/08/16 09:27:31;;;;;;;5.18;1.92;;;;;;;22.16;68.80;101369.47;4987125;28;20923;-82
2023/08/16 09:29:57;;;;;;;4.15;2.13;;;;;;;22.24;70.62;101370.56;4985048;28;20978;-82
2023/08/16 09:32:29;;;;;;;3.28;2.30;;;;;;;22.40;70.19;101365.25;4990372;28;20231;-82
2023/08/16 09:34:57;;;;;;;5.13;2.22;;;;;;;22.57;69.45;101364.44;4993426;28;20207;-82
2023/08/16 09:37:23;;;;;;;4.72;2.22;;;;;;;22.73;69.85;101361.84;4984378;28;20216;-82
2023/08/16 09:39:56;;;;;;;4.22;2.60;;;;;;;22.87;68.33;101363.13;4991183;28;20868;-81
2023/08/16 09:42:31;;;;;;;4.43;2.35;;;;;;;23.02;69.14;101360.69;4985049;28;20227;-81
2023/08/16 09:44:57;;;;;;;6.70;3.67;;;;;;;23.14;69.14;101359.38;4987276;28;20585;-81
2023/08/16 09:47:25;;;;;;;5.38;3.30;;;;;;;23.19;69.08;101359.75;5007931;28;21388;-82
2023/08/16 09:49:51;;;;;;;4.50;3.47;;;;;;;23.26;68.18;101358.09;4989929;28;20215;-82
2023/08/16 09:52:18;;;;;;;5.47;3.75;;;;;;;23.32;67.90;101356.59;4981658;28;20235;-81
2023/08/16 09:54:49;;;;;;;5.20;2.72;;;;;;;23.37;68.14;101341.50;4984633;28;20668;-81
2023/08/16 09:57:17;;;;;;;4.05;2.60;;;;;;;23.44;67.32;101345.28;4989568;28;20245;-82
2023/08/16 09:59:45;;;;;;;6.05;3.00;;;;;;;23.52;68.08;101344.47;5015548;28;20207;-81
2023/08/16 10:02:14;;;;;;;5.10;3.08;;;;;;;23.61;68.67;101337.22;4990450;28;20204;-82
2023/08/16 10:04:40;;;;;;;5.30;2.72;;;;;;;23.70;68.21;101345.22;4989479;28;20211;-81
2023/08/16 10:07:08;;;;;;;4.63;2.88;;;;;;;23.83;68.21;101352.91;4983217;28;20236;-81
2023/08/16 10:09:35;;;;;;;6.95;3.35;;;;;;;23.93;66.89;101347.31;4987919;28;20253;-81
2023/08/16 10:12:03;;;;;;;3.97;2.80;;;;;;;24.04;67.70;101347.00;4985103;28;20217;-82
2023/08/16 10:14:30;;;;;;;5.55;2.80;;;;;;;24.21;67.17;101348.72;4988538;28;20223;-82
2023/08/16 10:17:01;;;;;;;5.18;2.92;;;;;;;24.32;65.87;101353.88;4996905;28;20203;-82
2023/08/16 10:19:30;;;;;;;5.65;3.20;;;;;;;24.39;64.79;101343.13;4983188;28;20200;-81
2023/08/16 10:21:58;;;;;;;5.28;2.92;;;;;;;24.45;66.04;101347.91;4989377;28;20804;-81
2023/08/16 10:24:25;;;;;;;3.97;3.22;;;;;;;24.54;66.53;101344.19;4994529;28;20227;-82
2023/08/16 10:26:53;;;;;;;4.68;3.05;;;;;;;24.59;65.48;101339.03;4988951;28;20231;-82
2023/08/16 10:29:23;;;;;;;4.80;3.20;;;;;;;24.60;64.45;101337.19;4982541;28;20204;-83
2023/08/16 10:31:52;;;;;;;4.07;3.15;;;;;;;24.62;64.76;101324.25;4983752;28;20668;-82
2023/08/16 10:34:22;;;;;;;6.28;3.30;;;;;;;24.69;66.30;101339.75;4986354;28;20932;-81
2023/08/16 10:36:49;;;;;;;4.50;3.40;;;;;;;24.77;66.42;101336.97;4980636;28;20207;-82
2023/08/16 10:39:21;;;;;;;7.63;3.08;;;;;;;24.81;65.82;101324.72;4980104;28;20207;-82
2023/08/16 10:41:50;;;;;;;6.07;2.95;;;;;;;24.86;65.57;101329.66;4987095;28;20250;-83
2023/08/16 10:44:22;;;;;;;4.82;3.03;;;;;;;24.89;65.62;101324.72;4986158;28;20235;-82
2023/08/16 10:46:50;;;;;;;3.75;2.63;;;;;;;24.90;64.76;101326.38;4978397;28;20228;-82
2023/08/16 10:49:17;;;;;;;5.93;3.03;;;;;;;24.91;63.78;101328.09;4985542;28;20215;-82
2023/08/16 10:51:47;;;;;;;3.40;2.90;;;;;;;24.90;63.92;101323.66;4984437;28;20207;-83
2023/08/16 10:54:13;;;;;;;3.83;2.78;;;;;;;24.97;64.31;101328.47;4989069;28;20227;-83
2023/08/16 10:56:47;;;;;;;4.68;2.85;;;;;;;25.05;64.80;101320.28;4981415;28;20208;-82
2023/08/16 10:59:14;;;;;;;4.30;2.55;;;;;;;25.14;64.15;101321.94;4983370;28;20227;-83
2023/08/16 11:01:48;;;;;;;5.15;3.05;;;;;;;25.15;63.04;101318.19;4983386;28;20212;-83
2023/08/16 11:04:15;;;;;;;4.20;2.58;;;;;;;25.17;63.99;101316.13;4983647;28;20234;-82
2023/08/16 11:06:43;;;;;;;5.50;2.80;;;;;;;25.18;64.14;101326.03;4984434;28;20239;-82
2023/08/16 11:09:10;;;;;;;4.45;2.65;;;;;;;25.21;63.28;101331.97;4989948;28;20207;-82
2023/08/16 11:11:44;;;;;;;2.45;2.17;;;;;;;25.27;63.26;101322.22;4978008;28;20261;-81
2023/08/16 11:14:13;;;;;;;4.55;2.72;;;;;;;25.34;63.23;101322.38;4985447;28;20755;-81